sensor_id;sensor_type;location;lat;lon;timestamp;temperature;humidity
44731;DHT22;30458;47.448;19.032;2023-05-10T00:03:40;14.20;97.20
44731;DHT22;30458;47.448;19.032;2023-05-10T00:13:41;14.00;98.20
44731;DHT22;30458;47.448;19.032;2023-05-10T00:23:42;14.00;98.70
44731;DHT22;30458;47.448;19.032;2023-05-10T00:33:45;13.90;99.50
44731;DHT22;30458;47.448;19.032;2023-05-10T00:43:49;14.00;99.30
44731;DHT22;30458;47.448;19.032;2023-05-10T00:53:53;14.20;99.10
44731;DHT22;30458;47.448;19.032;2023-05-10T01:03:55;14.10;99.30
44731;DHT22;30458;47.448;19.032;2023-05-10T01:13:57;14.20;99.20
44731;DHT22;30458;47.448;19.032;2023-05-10T01:34:19;14.30;99.20
44731;DHT22;30458;47.448;19.032;2023-05-10T01:44:42;14.20;99.60
44731;DHT22;30458;47.448;19.032;2023-05-10T01:54:55;14.20;99.80
44731;DHT22;30458;47.448;19.032;2023-05-10T02:04:57;14.30;99.80
44731;DHT22;30458;47.448;19.032;2023-05-10T02:15:04;14.20;99.90
44731;DHT22;30458;47.448;19.032;2023-05-10T02:25:09;14.20;99.90
44731;DHT22;30458;47.448;19.032;2023-05-10T02:35:12;14.10;99.90
44731;DHT22;30458;47.448;19.032;2023-05-10T02:45:17;13.90;99.90
44731;DHT22;30458;47.448;19.032;2023-05-10T02:55:31;13.80;99.90
44731;DHT22;30458;47.448;19.032;2023-05-10T03:05:32;13.80;99.90
44731;DHT22;30458;47.448;19.032;2023-05-10T03:16:08;13.80;99.90
44731;DHT22;30458;47.448;19.032;2023-05-10T03:26:17;13.70;99.90
44731;DHT22;30458;47.448;19.032;2023-05-10T03:36:19;13.60;99.90
44731;DHT22;30458;47.448;19.032;2023-05-10T03:46:21;13.50;99.90
44731;DHT22;30458;47.448;19.032;2023-05-10T03:56:21;13.50;99.90
44731;DHT22;30458;47.448;19.032;2023-05-10T04:06:22;13.60;99.90
44731;DHT22;30458;47.448;19.032;2023-05-10T04:16:25;13.60;99.70
44731;DHT22;30458;47.448;19.032;2023-05-10T04:26:26;13.60;99.60
44731;DHT22;30458;47.448;19.032;2023-05-10T04:36:27;13.70;99.60
44731;DHT22;30458;47.448;19.032;2023-05-10T04:46:30;14.00;99.00
44731;DHT22;30458;47.448;19.032;2023-05-10T04:56:31;14.80;97.90
44731;DHT22;30458;47.448;19.032;2023-05-10T05:06:32;15.30;97.10
44731;DHT22;30458;47.448;19.032;2023-05-10T05:16:32;15.50;96.60
44731;DHT22;30458;47.448;19.032;2023-05-10T05:26:38;15.30;96.50
44731;DHT22;30458;47.448;19.032;2023-05-10T05:36:39;14.80;97.70
44731;DHT22;30458;47.448;19.032;2023-05-10T05:46:39;16.00;96.00
44731;DHT22;30458;47.448;19.032;2023-05-10T05:56:40;17.20;94.10
44731;DHT22;30458;47.448;19.032;2023-05-10T06:06:41;17.90;92.90
44731;DHT22;30458;47.448;19.032;2023-05-10T06:16:45;18.40;92.50
44731;DHT22;30458;47.448;19.032;2023-05-10T06:26:48;18.20;92.50
44731;DHT22;30458;47.448;19.032;2023-05-10T06:36:55;18.40;92.00
44731;DHT22;30458;47.448;19.032;2023-05-10T06:46:58;17.40;93.00
44731;DHT22;30458;47.448;19.032;2023-05-10T06:56:58;17.50;92.50
44731;DHT22;30458;47.448;19.032;2023-05-10T07:07:02;18.50;90.80
44731;DHT22;30458;47.448;19.032;2023-05-10T07:17:07;18.60;91.40
44731;DHT22;30458;47.448;19.032;2023-05-10T07:27:08;18.30;91.40
44731;DHT22;30458;47.448;19.032;2023-05-10T07:37:12;17.60;92.60
44731;DHT22;30458;47.448;19.032;2023-05-10T07:47:12;18.80;91.10
44731;DHT22;30458;47.448;19.032;2023-05-10T07:57:16;19.40;90.00
44731;DHT22;30458;47.448;19.032;2023-05-10T08:07:18;18.20;91.00
44731;DHT22;30458;47.448;19.032;2023-05-10T08:17:21;17.30;92.40
44731;DHT22;30458;47.448;19.032;2023-05-10T08:27:22;17.90;92.50
44731;DHT22;30458;47.448;19.032;2023-05-10T08:37:26;18.30;91.20
44731;DHT22;30458;47.448;19.032;2023-05-10T08:47:30;18.00;91.20
44731;DHT22;30458;47.448;19.032;2023-05-10T08:57:31;18.10;91.20
44731;DHT22;30458;47.448;19.032;2023-05-10T09:07:36;17.90;91.60
44731;DHT22;30458;47.448;19.032;2023-05-10T09:17:38;17.70;92.00
44731;DHT22;30458;47.448;19.032;2023-05-10T09:27:45;17.90;91.10
44731;DHT22;30458;47.448;19.032;2023-05-10T09:37:51;18.30;91.10
44731;DHT22;30458;47.448;19.032;2023-05-10T09:47:57;18.50;90.40
44731;DHT22;30458;47.448;19.032;2023-05-10T09:58:03;18.50;90.40
44731;DHT22;30458;47.448;19.032;2023-05-10T10:08:07;18.30;90.60
44731;DHT22;30458;47.448;19.032;2023-05-10T10:18:14;18.70;89.20
44731;DHT22;30458;47.448;19.032;2023-05-10T10:28:31;18.60;90.20
44731;DHT22;30458;47.448;19.032;2023-05-10T10:48:50;18.70;88.80
44731;DHT22;30458;47.448;19.032;2023-05-10T10:58:59;18.80;87.60
44731;DHT22;30458;47.448;19.032;2023-05-10T11:09:07;18.80;86.40
44731;DHT22;30458;47.448;19.032;2023-05-10T11:19:16;18.70;87.20
44731;DHT22;30458;47.448;19.032;2023-05-10T11:29:17;18.70;85.80
44731;DHT22;30458;47.448;19.032;2023-05-10T11:39:20;18.90;86.40
44731;DHT22;30458;47.448;19.032;2023-05-10T11:49:23;19.00;83.60
44731;DHT22;30458;47.448;19.032;2023-05-10T11:59:28;19.00;83.10
44731;DHT22;30458;47.448;19.032;2023-05-10T12:09:29;19.10;83.20
44731;DHT22;30458;47.448;19.032;2023-05-10T12:19:42;19.30;83.60
44731;DHT22;30458;47.448;19.032;2023-05-10T12:29:48;19.20;82.30
44731;DHT22;30458;47.448;19.032;2023-05-10T12:39:48;19.40;83.30
44731;DHT22;30458;47.448;19.032;2023-05-10T12:49:49;19.40;82.00
44731;DHT22;30458;47.448;19.032;2023-05-10T12:59:51;19.30;82.30
44731;DHT22;30458;47.448;19.032;2023-05-10T13:09:55;19.10;82.70
44731;DHT22;30458;47.448;19.032;2023-05-10T13:19:56;19.20;81.90
44731;DHT22;30458;47.448;19.032;2023-05-10T13:29:56;19.10;81.10
44731;DHT22;30458;47.448;19.032;2023-05-10T13:39:59;19.00;80.70
44731;DHT22;30458;47.448;19.032;2023-05-10T13:50:00;19.10;80.80
44731;DHT22;30458;47.448;19.032;2023-05-10T14:00:01;19.20;78.90
44731;DHT22;30458;47.448;19.032;2023-05-10T14:10:08;19.20;79.70
44731;DHT22;30458;47.448;19.032;2023-05-10T14:20:11;19.30;78.80
44731;DHT22;30458;47.448;19.032;2023-05-10T14:30:12;19.40;76.50
44731;DHT22;30458;47.448;19.032;2023-05-10T14:40:15;19.30;74.90
44731;DHT22;30458;47.448;19.032;2023-05-10T14:50:20;19.40;75.50
44731;DHT22;30458;47.448;19.032;2023-05-10T15:00:23;19.40;76.60
44731;DHT22;30458;47.448;19.032;2023-05-10T15:10:26;19.50;75.30
44731;DHT22;30458;47.448;19.032;2023-05-10T15:20:29;19.60;77.80
44731;DHT22;30458;47.448;19.032;2023-05-10T15:30:30;19.80;76.80
44731;DHT22;30458;47.448;19.032;2023-05-10T15:40:31;19.60;75.60
44731;DHT22;30458;47.448;19.032;2023-05-10T15:50:32;19.50;75.30
44731;DHT22;30458;47.448;19.032;2023-05-10T16:00:33;19.30;75.30
44731;DHT22;30458;47.448;19.032;2023-05-10T16:10:36;19.10;75.20
44731;DHT22;30458;47.448;19.032;2023-05-10T16:20:37;19.10;76.00
44731;DHT22;30458;47.448;19.032;2023-05-10T16:30:40;19.10;75.30
44731;DHT22;30458;47.448;19.032;2023-05-10T16:40:43;19.10;74.80
44731;DHT22;30458;47.448;19.032;2023-05-10T16:50:44;19.10;75.60
44731;DHT22;30458;47.448;19.032;2023-05-10T17:00:46;19.10;76.20
44731;DHT22;30458;47.448;19.032;2023-05-10T17:10:47;19.00;79.10
44731;DHT22;30458;47.448;19.032;2023-05-10T17:20:49;19.00;80.30
44731;DHT22;30458;47.448;19.032;2023-05-10T17:31:01;18.80;81.80
44731;DHT22;30458;47.448;19.032;2023-05-10T17:41:02;18.80;82.60
44731;DHT22;30458;47.448;19.032;2023-05-10T17:51:03;18.60;83.20
44731;DHT22;30458;47.448;19.032;2023-05-10T18:01:04;18.60;83.20
44731;DHT22;30458;47.448;19.032;2023-05-10T18:11:05;18.50;83.90
44731;DHT22;30458;47.448;19.032;2023-05-10T18:21:06;18.30;84.20
44731;DHT22;30458;47.448;19.032;2023-05-10T18:31:12;18.10;84.20
44731;DHT22;30458;47.448;19.032;2023-05-10T18:41:12;18.00;83.50
44731;DHT22;30458;47.448;19.032;2023-05-10T18:51:14;17.80;83.30
44731;DHT22;30458;47.448;19.032;2023-05-10T19:01:15;17.80;83.10
44731;DHT22;30458;47.448;19.032;2023-05-10T19:11:18;17.70;82.90
44731;DHT22;30458;47.448;19.032;2023-05-10T19:21:21;17.70;82.80
44731;DHT22;30458;47.448;19.032;2023-05-10T19:31:22;17.60;82.50
44731;DHT22;30458;47.448;19.032;2023-05-10T19:41:25;17.50;82.40
44731;DHT22;30458;47.448;19.032;2023-05-10T19:51:26;17.40;82.20
44731;DHT22;30458;47.448;19.032;2023-05-10T20:01:27;17.40;82.00
44731;DHT22;30458;47.448;19.032;2023-05-10T20:11:34;17.30;82.20
44731;DHT22;30458;47.448;19.032;2023-05-10T20:21:35;17.40;82.20
44731;DHT22;30458;47.448;19.032;2023-05-10T20:31:36;17.40;82.60
44731;DHT22;30458;47.448;19.032;2023-05-10T20:41:37;17.40;82.70
44731;DHT22;30458;47.448;19.032;2023-05-10T20:51:38;17.40;82.80
44731;DHT22;30458;47.448;19.032;2023-05-10T21:01:44;17.40;82.80
44731;DHT22;30458;47.448;19.032;2023-05-10T21:11:48;17.40;83.00
44731;DHT22;30458;47.448;19.032;2023-05-10T21:21:49;17.40;82.90
44731;DHT22;30458;47.448;19.032;2023-05-10T21:31:50;17.40;82.70
44731;DHT22;30458;47.448;19.032;2023-05-10T21:41:50;17.30;82.60
44731;DHT22;30458;47.448;19.032;2023-05-10T21:51:52;17.30;82.20
44731;DHT22;30458;47.448;19.032;2023-05-10T22:01:52;17.30;81.80
44731;DHT22;30458;47.448;19.032;2023-05-10T22:11:58;17.20;81.70
44731;DHT22;30458;47.448;19.032;2023-05-10T22:21:58;17.30;81.70
44731;DHT22;30458;47.448;19.032;2023-05-10T22:31:59;17.20;81.60
44731;DHT22;30458;47.448;19.032;2023-05-10T22:42:07;17.20;81.90
44731;DHT22;30458;47.448;19.032;2023-05-10T22:52:08;17.00;82.40
44731;DHT22;30458;47.448;19.032;2023-05-10T23:02:14;16.90;83.10
44731;DHT22;30458;47.448;19.032;2023-05-10T23:12:19;16.70;84.30
44731;DHT22;30458;47.448;19.032;2023-05-10T23:22:20;16.40;85.20
44731;DHT22;30458;47.448;19.032;2023-05-10T23:32:24;16.20;85.50
44731;DHT22;30458;47.448;19.032;2023-05-10T23:42:27;16.30;85.90
44731;DHT22;30458;47.448;19.032;2023-05-10T23:52:28;16.20;85.80
